Airfield :
LOGIN :

Register | Disclaimer

   EN    FR    IT 

 










Legend :    VFR   Marginal VFR   IFR   Intensive IFR   Very Intensive IFR
Visi :
Ceiling :
>= 8 km
>= 3000ft
5 to 8 km
1000 to 3000 ft
1500m to 5 km
500 to 1000 ft
800 to 1500m
200 to 500 ft
< 800m
< 200 ft
Symbols :   Thunderstorms  Fog  Heavy snow  Heavy precipitations  Wind > 20 kt
SIGMETs :     Misc.  Thunderstorms  Icing  Turbulence  Mountain Waves  Volcanic Ashes






- Airport Elevation : 412 ft
- IATA code : ORE


LFOJ - Orleans

CURRENT METAR :
  • 070000Z AUTO 05005KT 3600 BR OVC003 10/10 Q1027 BECMG NSC

EXPIRED METARs :
  • 062330Z AUTO 07005KT 4700 BR BKN005 OVC092 10/10 Q1026 BECMG NSC
  • 062300Z AUTO 11005KT 4200 BR OVC006 10/10 Q1026 BECMG NSC
  • 062230Z AUTO 08004KT 3400 BR OVC008 10/09 Q1026 BECMG NSC
  • 062200Z AUTO VRB02KT 3300 BR BKN009 OVC064 10/09 Q1026 BECMG NSC
  • 062130Z AUTO 04003KT 3500 BR FEW009 OVC064 10/09 Q1025 NOSIG

TAF TAF LFOJ
Valid from the 06 at 21:00 until the 07 at 21:00 UTC


062000Z 0621/0721 VRB02KT 7000 NSC
BECMG 0622/0701 4000 BR
BECMG 0702/0704 1500 BR
PROB40
TEMPO 0704/0707 0600 FG OVC002
BECMG 0707/0709 07012KT CAVOK



MET'MAP, your aeronautical weather chart ! - Copyright ORBIFLY December 2007 - Disclaimer

ORBIFLY MET'MAP TEAM :

Programming & Development : Alexandra Zaïnal
Concept & original design : Baudouin d'Aumeries
Assistance for programming : Marc-Olivier Méhu
Technical & hardware support : Manuel Goepfert

Contact : metmap@orbifly.com




SOURCES & CREDITS :

   NOAA